Time;durP1;ratioP1;P1;durP2;ratioP2;P2;SDS_P1;SDS_P2;PMS_P1;PMS_P2;Temp;Humidity;BMP_temperature;BMP_pressure;BME280_temperature;BME280_humidity;BME280_pressure;Samples;Min_cycle;Max_cycle;Signal;HPM_P1;HPM_P2
2023/12/10 12:11:23;;;;;;;7.32;2.28;;;;;;;;;;10636837;27;20491;-82
2023/12/10 12:16:24;;;;;;;9.15;2.47;;;;;;;;;;10633517;28;20027;-81
2023/12/10 12:21:25;;;;;;;10.93;2.85;;;;;;;;;;10632879;28;20031;-82
2023/12/10 12:26:27;;;;;;;8.60;2.83;;;;;;;;;;10633247;28;20062;-82
2023/12/10 12:31:28;;;;;;;8.05;2.88;;;;;;;;;;10616150;28;20028;-82
2023/12/10 12:36:29;;;;;;;;;;;;;;;;;;10632674;28;20081;-81
2023/12/10 12:41:30;;;;;;;7.35;2.50;;;;;;;;;;10635265;28;19908;-83
2023/12/10 12:46:31;;;;;;;8.60;2.45;;;;;;;;;;10635224;28;20386;-83
2023/12/10 12:51:32;;;;;;;;;;;;;;;;;;10634248;28;20042;-81
2023/12/10 12:56:33;;;;;;;;;;;;;;;;;;10639846;28;19933;-81
2023/12/10 13:01:35;;;;;;;8.27;2.75;;;;;;;;;;10642775;28;20029;-82
2023/12/10 13:06:36;;;;;;;11.10;3.25;;;;;;;;;;10630654;28;20027;-81
2023/12/10 13:11:38;;;;;;;8.30;2.90;;;;;;;;;;10633094;28;20446;-83
2023/12/10 13:16:45;;;;;;;10.48;3.13;;;;;;;;;;10633177;28;20023;-81
2023/12/10 13:21:55;;;;;;;9.57;2.50;;;;;;;;;;10623585;28;20083;-83
2023/12/10 13:27:28;;;;;;;7.03;2.30;;;;;;;;;;10608014;28;20095;-85
2023/12/10 13:32:55;;;;;;;9.68;2.78;;;;;;;;;;10603576;28;20051;-83
2023/12/10 13:38:00;;;;;;;7.28;2.78;;;;;;;;;;10600685;28;20028;-79
2023/12/10 13:43:02;;;;;;;10.65;3.25;;;;;;;;;;10586487;28;20045;-83
2023/12/10 13:48:04;;;;;;;10.05;2.70;;;;;;;;;;10601319;28;20028;-81
2023/12/10 13:53:05;;;;;;;10.02;3.20;;;;;;;;;;10599800;28;20027;-81
2023/12/10 14:03:26;;;;;;;11.38;3.55;;;;;;;;;;10603024;28;20363;-82
2023/12/10 14:08:27;;;;;;;16.80;5.35;;;;;;;;;;10596715;28;20058;-81
2023/12/10 14:13:28;;;;;;;;;;;;;;;;;;10598799;28;20091;-82
2023/12/10 14:18:29;;;;;;;16.92;6.00;;;;;;;;;;10597936;28;19912;-82
2023/12/10 14:23:36;;;;;;;15.23;4.85;;;;;;;;;;10598595;28;20501;-83
2023/12/10 14:28:37;;;;;;;9.80;3.58;;;;;;;;;;10603983;28;20035;-81
2023/12/10 14:33:38;;;;;;;12.52;4.45;;;;;;;;;;10613952;28;20031;-80
2023/12/10 14:38:39;;;;;;;;;;;;;;;;;;10595266;28;20024;-81
2023/12/10 14:43:42;;;;;;;15.85;4.80;;;;;;;;;;10597533;28;20003;-79
2023/12/10 14:48:44;;;;;;;12.10;3.47;;;;;;;;;;10578034;28;20028;-81
2023/12/10 14:53:45;;;;;;;14.93;4.25;;;;;;;;;;10597101;28;20593;-81
2023/12/10 14:58:46;;;;;;;;;;;;;;;;;;10611309;28;20032;-81
2023/12/10 15:04:09;;;;;;;14.30;4.28;;;;;;;;;;10612143;28;19912;-82
2023/12/10 15:09:15;;;;;;;13.80;4.18;;;;;;;;;;10617054;28;20136;-80
2023/12/10 15:14:17;;;;;;;12.63;3.60;;;;;;;;;;10611614;28;20031;-79
2023/12/10 15:19:24;;;;;;;;;;;;;;;;;;10608794;28;20110;-81
2023/12/10 15:30:05;;;;;;;17.83;4.05;;;;;;;;;;10609887;28;20040;-84
2023/12/10 15:35:44;;;;;;;10.98;3.10;;;;;;;;;;10603403;28;20103;-82
2023/12/10 15:40:52;;;;;;;10.70;3.63;;;;;;;;;;10607736;28;20095;-81
2023/12/10 15:46:02;;;;;;;11.98;3.72;;;;;;;;;;10608377;28;20023;-82
2023/12/10 15:51:55;;;;;;;10.27;3.47;;;;;;;;;;10581934;28;20036;-85
2023/12/10 15:57:17;;;;;;;12.55;3.72;;;;;;;;;;10567312;28;20087;-81
2023/12/10 16:08:00;;;;;;;13.05;3.13;;;;;;;;;;10647626;27;20084;-82
2023/12/10 16:13:02;;;;;;;7.70;2.40;;;;;;;;;;10626514;28;20023;-79
2023/12/10 16:23:53;;;;;;;12.73;4.50;;;;;;;;;;10646688;28;20023;-81
2023/12/10 16:29:01;;;;;;;7.57;2.65;;;;;;;;;;10610632;28;20066;-82
2023/12/10 16:34:21;;;;;;;10.43;2.58;;;;;;;;;;10628989;28;20478;-82
2023/12/10 16:44:52;;;;;;;13.77;3.53;;;;;;;;;;10648908;28;20028;-81
2023/12/10 16:49:53;;;;;;;14.05;3.63;;;;;;;;;;10643157;28;20046;-82
2023/12/10 16:54:54;;;;;;;12.50;3.75;;;;;;;;;;10635918;27;20476;-81
2023/12/10 16:59:57;;;;;;;8.18;3.20;;;;;;;;;;10635629;27;20067;-82
2023/12/10 17:05:06;;;;;;;8.27;2.97;;;;;;;;;;10619951;27;20054;-82
2023/12/10 17:10:08;;;;;;;6.65;2.40;;;;;;;;;;10632428;27;20036;-80
2023/12/10 17:15:09;;;;;;;;;;;;;;;;;;10626546;27;20031;-85
